createdAt,value
2018-06-27T00:02:09.448Z,4.70
2018-06-27T00:04:38.876Z,4.10
2018-06-27T00:07:08.281Z,3.57
2018-06-27T00:09:37.838Z,4.63
2018-06-27T00:12:07.111Z,5.00
2018-06-27T00:14:37.564Z,4.20
2018-06-27T00:17:07.886Z,3.70
2018-06-27T00:19:37.830Z,3.70
2018-06-27T00:22:07.244Z,3.43
2018-06-27T00:24:37.060Z,4.20
2018-06-27T00:27:06.743Z,3.70
2018-06-27T00:29:36.911Z,4.70
2018-06-27T00:32:06.272Z,3.63
2018-06-27T00:34:35.748Z,3.43
2018-06-27T00:37:06.230Z,3.80
2018-06-27T00:39:35.632Z,3.60
2018-06-27T00:42:05.067Z,4.67
2018-06-27T00:44:35.150Z,3.20
2018-06-27T00:47:04.433Z,3.87
2018-06-27T00:49:33.761Z,3.43
2018-06-27T00:52:03.080Z,3.60
2018-06-27T00:54:32.833Z,4.23
2018-06-27T00:57:02.877Z,3.67
2018-06-27T00:59:32.243Z,3.00
2018-06-27T01:02:02.498Z,3.60
2018-06-27T01:04:31.738Z,3.23
2018-06-27T01:07:02.058Z,3.93
2018-06-27T01:09:31.497Z,3.77
2018-06-27T01:12:00.794Z,3.70
2018-06-27T01:14:30.746Z,3.53
2018-06-27T01:17:00.032Z,4.23
2018-06-27T01:19:30.678Z,3.43
2018-06-27T01:22:00.899Z,3.90
2018-06-27T01:24:30.275Z,3.87
2018-06-27T01:26:59.538Z,3.77
2018-06-27T01:29:28.933Z,3.73
2018-06-27T01:32:00.184Z,4.63
2018-06-27T01:34:30.581Z,3.67
2018-06-27T01:37:01.199Z,3.87
2018-06-27T01:39:30.527Z,3.73
2018-06-27T01:41:59.835Z,4.00
2018-06-27T01:44:30.056Z,4.23
2018-06-27T01:46:59.276Z,4.23
2018-06-27T01:49:29.054Z,3.63
2018-06-27T01:51:59.681Z,4.27
2018-06-27T01:54:29.808Z,4.37
2018-06-27T01:56:59.211Z,4.60
2018-06-27T01:59:28.670Z,4.73
2018-06-27T02:01:57.906Z,5.37
2018-06-27T02:04:27.352Z,4.07
2018-06-27T02:06:56.773Z,5.00
2018-06-27T02:09:28.344Z,4.10
2018-06-27T02:11:57.603Z,3.90
2018-06-27T02:14:27.830Z,4.17
2018-06-27T02:16:57.268Z,4.10
2018-06-27T02:19:26.412Z,4.10
2018-06-27T02:21:55.767Z,4.03
2018-06-27T02:24:26.526Z,4.30
2018-06-27T02:26:56.663Z,4.33
2018-06-27T02:29:26.017Z,4.17
2018-06-27T02:31:56.898Z,3.80
2018-06-27T02:34:26.220Z,4.60
2018-06-27T02:36:56.333Z,3.83
2018-06-27T02:39:25.887Z,4.40
2018-06-27T02:41:55.069Z,4.17
2018-06-27T02:44:24.492Z,4.10
2018-06-27T02:46:54.143Z,4.23
2018-06-27T02:49:23.637Z,5.07
2018-06-27T02:51:53.134Z,4.80
2018-06-27T02:54:23.267Z,3.70
2018-06-27T02:56:52.981Z,4.93
2018-06-27T02:59:23.332Z,5.40
2018-06-27T03:01:54.806Z,5.60
2018-06-27T03:04:24.956Z,5.10
2018-06-27T03:06:54.407Z,5.03
2018-06-27T03:09:24.432Z,6.33
2018-06-27T03:11:53.770Z,5.57
2018-06-27T03:14:23.139Z,6.03
2018-06-27T03:16:54.320Z,5.83
2018-06-27T03:19:24.904Z,6.27
2018-06-27T03:21:54.368Z,5.17
2018-06-27T03:24:24.562Z,5.83
2018-06-27T03:26:54.024Z,4.63
2018-06-27T03:29:24.346Z,4.50
2018-06-27T03:31:55.956Z,5.30
2018-06-27T03:34:25.260Z,5.00
2018-06-27T03:36:56.755Z,6.27
2018-06-27T03:39:26.078Z,5.97
2018-06-27T03:41:55.455Z,4.90
2018-06-27T03:44:24.926Z,5.97
2018-06-27T03:46:54.417Z,7.40
2018-06-27T03:49:26.379Z,8.80
2018-06-27T03:51:55.751Z,7.13
2018-06-27T03:54:25.641Z,8.33
2018-06-27T03:56:56.831Z,7.57
2018-06-27T03:59:26.171Z,7.23
2018-06-27T04:01:55.414Z,6.00
2018-06-27T04:04:24.971Z,4.90
2018-06-27T04:06:54.505Z,5.60
2018-06-27T04:09:24.012Z,5.03
2018-06-27T04:11:53.261Z,4.83
2018-06-27T04:14:23.058Z,4.70
2018-06-27T04:16:52.616Z,4.50
2018-06-27T04:19:23.874Z,4.00
2018-06-27T04:21:55.282Z,4.30
2018-06-27T04:24:25.021Z,4.50
2018-06-27T04:26:55.210Z,4.80
2018-06-27T04:29:24.704Z,4.50
2018-06-27T04:31:55.296Z,4.70
2018-06-27T04:34:24.576Z,4.40
2018-06-27T04:36:54.086Z,3.93
2018-06-27T04:39:23.564Z,4.47
2018-06-27T04:41:54.087Z,4.97
2018-06-27T04:44:23.472Z,5.47
2018-06-27T04:46:52.848Z,6.10
2018-06-27T04:49:22.206Z,5.07
2018-06-27T04:51:54.803Z,5.03
2018-06-27T04:54:24.038Z,4.40
2018-06-27T04:56:54.751Z,4.33
2018-06-27T04:59:24.207Z,3.80
2018-06-27T05:01:54.211Z,3.97
2018-06-27T05:04:23.632Z,4.30
2018-06-27T05:06:53.011Z,4.10
2018-06-27T05:09:22.373Z,3.93
2018-06-27T05:11:51.930Z,3.50
2018-06-27T05:14:21.347Z,4.40
2018-06-27T05:16:51.351Z,4.47
2018-06-27T05:19:21.610Z,4.00
2018-06-27T05:21:50.995Z,3.77
2018-06-27T05:24:20.255Z,4.20
2018-06-27T05:26:50.692Z,4.70
2018-06-27T05:29:20.014Z,4.53
2018-06-27T05:31:49.399Z,3.70
2018-06-27T05:34:18.602Z,3.77
2018-06-27T05:36:47.828Z,3.47
2018-06-27T05:39:17.245Z,3.70
2018-06-27T05:41:46.750Z,3.93
2018-06-27T05:44:16.834Z,4.70
2018-06-27T05:46:46.236Z,3.77
2018-06-27T05:49:15.594Z,2.90
2018-06-27T05:51:44.996Z,3.80
2018-06-27T05:54:14.307Z,5.13
2018-06-27T05:56:43.962Z,5.00
2018-06-27T05:59:13.415Z,5.90
2018-06-27T06:01:42.930Z,5.00
2018-06-27T06:04:12.170Z,3.90
2018-06-27T06:06:43.659Z,5.47
2018-06-27T06:09:13.554Z,6.33
2018-06-27T06:11:42.718Z,5.43
2018-06-27T06:14:12.018Z,6.70
2018-06-27T06:16:42.477Z,6.57
2018-06-27T06:19:12.004Z,5.83
2018-06-27T06:21:42.345Z,7.10
2018-06-27T06:24:13.721Z,6.47
2018-06-27T06:26:42.911Z,9.20
2018-06-27T06:29:12.284Z,7.63
2018-06-27T06:31:44.208Z,10.90
2018-06-27T06:34:14.689Z,9.50
2018-06-27T06:36:44.130Z,8.60
2018-06-27T06:39:14.229Z,9.20
2018-06-27T06:41:43.451Z,9.07
2018-06-27T06:44:13.580Z,8.70
2018-06-27T06:46:42.917Z,7.53
2018-06-27T06:49:12.121Z,7.80
2018-06-27T06:51:42.357Z,6.73
2018-06-27T06:54:12.637Z,6.63
2018-06-27T06:56:42.868Z,8.40
2018-06-27T06:59:13.450Z,7.20
2018-06-27T07:01:42.727Z,7.20
2018-06-27T07:04:12.019Z,7.20
2018-06-27T07:06:41.335Z,5.87
2018-06-27T07:09:12.612Z,6.20
2018-06-27T07:11:41.977Z,6.27
2018-06-27T07:14:13.931Z,5.50
2018-06-27T07:16:43.241Z,5.27
2018-06-27T07:19:15.970Z,5.40
2018-06-27T07:21:45.745Z,5.73
2018-06-27T07:24:14.955Z,5.27
2018-06-27T07:26:44.370Z,5.40
2018-06-27T07:29:13.710Z,5.30
2018-06-27T07:31:43.119Z,6.37
2018-06-27T07:34:12.455Z,5.57
2018-06-27T07:36:42.783Z,5.00
2018-06-27T07:39:14.160Z,5.90
2018-06-27T07:41:43.621Z,3.90
2018-06-27T07:44:13.059Z,5.83
2018-06-27T07:46:42.340Z,5.40
2018-06-27T07:49:11.928Z,6.00
2018-06-27T07:51:41.663Z,5.30
2018-06-27T07:54:10.996Z,4.27
2018-06-27T07:56:42.058Z,3.03
2018-06-27T07:59:11.927Z,4.00
2018-06-27T08:01:41.387Z,4.20
2018-06-27T08:04:10.634Z,5.03
2018-06-27T08:06:46.041Z,3.47
2018-06-27T08:09:15.342Z,3.90
2018-06-27T08:11:45.458Z,5.13
2018-06-27T08:14:14.864Z,2.87
2018-06-27T08:16:45.030Z,3.13
2018-06-27T08:19:15.669Z,2.70
2018-06-27T08:21:46.345Z,4.00
2018-06-27T08:24:15.858Z,7.53
2018-06-27T08:26:45.372Z,3.03
2018-06-27T08:29:14.848Z,3.00
2018-06-27T08:31:45.139Z,2.50
2018-06-27T08:34:14.457Z,3.07
2018-06-27T08:36:43.900Z,2.90
2018-06-27T08:39:14.000Z,5.10
2018-06-27T08:41:43.399Z,4.17
2018-06-27T08:44:12.856Z,4.23
2018-06-27T08:46:42.275Z,4.37
2018-06-27T08:49:11.689Z,3.73
2018-06-27T08:51:41.750Z,3.23
2018-06-27T08:54:11.171Z,3.10
2018-06-27T08:56:41.472Z,3.87
2018-06-27T08:59:11.011Z,3.40
2018-06-27T09:01:40.293Z,3.30
2018-06-27T09:04:09.782Z,3.03
2018-06-27T09:06:38.971Z,2.37
2018-06-27T09:09:12.139Z,3.30
2018-06-27T09:11:41.883Z,3.37
2018-06-27T09:14:12.295Z,2.83
2018-06-27T09:16:42.163Z,3.30
2018-06-27T09:19:12.168Z,3.20
2018-06-27T09:21:42.977Z,3.30
2018-06-27T09:24:13.211Z,3.20
2018-06-27T09:26:43.887Z,2.43
2018-06-27T09:29:13.089Z,3.17
2018-06-27T09:31:43.588Z,2.83
2018-06-27T09:34:14.316Z,5.20
2018-06-27T09:36:45.447Z,3.20
2018-06-27T09:39:15.634Z,2.73
2018-06-27T09:41:46.716Z,2.63
2018-06-27T09:44:16.160Z,2.93
2018-06-27T09:46:46.413Z,3.73
2018-06-27T09:49:15.965Z,2.97
2018-06-27T09:51:46.442Z,2.67
2018-06-27T09:54:17.068Z,2.90
2018-06-27T09:56:46.487Z,2.60
2018-06-27T09:59:17.064Z,1.90
2018-06-27T10:01:47.000Z,2.20
2018-06-27T10:04:16.432Z,2.80
2018-06-27T10:06:45.828Z,2.70
2018-06-27T10:09:15.675Z,3.10
2018-06-27T10:11:45.239Z,2.67
2018-06-27T10:14:14.704Z,3.10
2018-06-27T10:16:44.174Z,4.03
2018-06-27T10:19:13.416Z,3.23
2018-06-27T10:21:43.030Z,3.60
2018-06-27T10:24:13.067Z,2.50
2018-06-27T10:26:42.528Z,2.90
2018-06-27T10:29:11.933Z,2.70
2018-06-27T10:31:42.196Z,2.27
2018-06-27T10:34:11.383Z,2.83
2018-06-27T10:36:42.021Z,2.10
2018-06-27T10:39:13.306Z,2.20
2018-06-27T10:41:42.543Z,2.83
2018-06-27T10:44:11.848Z,2.80
2018-06-27T10:46:41.196Z,2.70
2018-06-27T10:49:10.530Z,1.77
2018-06-27T10:51:41.214Z,3.53
2018-06-27T10:54:12.272Z,2.83
2018-06-27T10:56:42.525Z,1.83
2018-06-27T10:59:11.871Z,2.20
2018-06-27T11:01:41.110Z,2.07
2018-06-27T11:04:10.644Z,1.63
2018-06-27T11:06:40.260Z,1.60
2018-06-27T11:09:11.429Z,1.43
2018-06-27T11:11:41.718Z,1.20
2018-06-27T11:14:11.045Z,1.30
2018-06-27T11:16:40.321Z,1.37
2018-06-27T11:19:10.517Z,1.60
2018-06-27T11:21:40.352Z,1.60
2018-06-27T11:24:10.369Z,2.20
2018-06-27T11:26:39.917Z,2.03
2018-06-27T11:29:10.228Z,2.33
2018-06-27T11:31:40.712Z,1.80
2018-06-27T11:34:11.167Z,1.30
2018-06-27T11:36:40.723Z,1.30
2018-06-27T11:39:12.412Z,1.20
2018-06-27T11:41:42.746Z,1.80
2018-06-27T11:44:13.234Z,1.30
2018-06-27T11:46:43.283Z,1.10
2018-06-27T11:49:12.707Z,1.30
2018-06-27T11:51:43.247Z,1.00
2018-06-27T11:54:16.565Z,0.90
2018-06-27T11:56:46.164Z,1.17
2018-06-27T11:59:15.707Z,1.23
2018-06-27T12:01:45.317Z,1.13
2018-06-27T12:04:14.699Z,1.00
2018-06-27T12:06:44.321Z,1.37
2018-06-27T12:09:14.364Z,1.57
2018-06-27T12:11:43.744Z,1.37
2018-06-27T12:14:13.350Z,1.10
2018-06-27T12:16:44.342Z,1.67
2018-06-27T12:19:13.652Z,1.30
2018-06-27T12:21:45.305Z,1.63
2018-06-27T12:24:14.719Z,2.17
2018-06-27T12:26:44.704Z,2.00
2018-06-27T12:29:14.129Z,1.57
2018-06-27T12:31:43.568Z,1.37
2018-06-27T12:34:13.106Z,1.50
2018-06-27T12:36:42.649Z,1.50
2018-06-27T12:39:12.966Z,1.43
2018-06-27T12:41:43.198Z,2.00
2018-06-27T12:44:13.937Z,1.80
2018-06-27T12:46:44.408Z,1.50
2018-06-27T12:49:14.494Z,1.23
2018-06-27T12:51:43.933Z,1.20
2018-06-27T12:54:13.881Z,1.20
2018-06-27T12:56:44.402Z,1.53
2018-06-27T12:59:14.155Z,2.13
2018-06-27T13:01:43.624Z,1.10
2018-06-27T13:04:12.933Z,1.30
2018-06-27T13:06:42.510Z,1.50
2018-06-27T13:09:12.742Z,1.50
2018-06-27T13:11:42.249Z,1.33
2018-06-27T13:14:11.326Z,1.67
2018-06-27T13:16:40.781Z,1.40
2018-06-27T13:19:12.593Z,0.93
2018-06-27T13:21:42.077Z,1.30
2018-06-27T13:24:11.981Z,1.63
2018-06-27T13:26:41.321Z,1.83
2018-06-27T13:29:10.983Z,1.57
2018-06-27T13:31:40.478Z,1.50
2018-06-27T13:34:09.805Z,1.37
2018-06-27T13:36:39.765Z,1.20
2018-06-27T13:39:10.012Z,1.57
2018-06-27T13:41:40.142Z,2.13
2018-06-27T13:44:09.505Z,1.30
2018-06-27T13:46:38.899Z,1.40
2018-06-27T13:49:10.209Z,1.73
2018-06-27T13:51:40.768Z,1.50
2018-06-27T13:54:11.058Z,1.40
2018-06-27T13:56:41.677Z,1.30
2018-06-27T13:59:11.150Z,1.90
2018-06-27T14:01:42.568Z,1.20
2018-06-27T14:04:11.812Z,1.23
2018-06-27T14:06:42.157Z,1.40
2018-06-27T14:09:11.827Z,1.33
2018-06-27T14:11:41.326Z,1.50
2018-06-27T14:14:11.137Z,1.30
2018-06-27T14:16:40.590Z,1.40
2018-06-27T14:19:09.966Z,1.30
2018-06-27T14:21:39.308Z,1.67
2018-06-27T14:24:08.812Z,1.30
2018-06-27T14:26:38.872Z,2.40
2018-06-27T14:29:08.944Z,2.00
2018-06-27T14:31:39.209Z,2.03
2018-06-27T14:34:10.687Z,30.80
2018-06-27T14:36:42.060Z,16.23
2018-06-27T14:39:11.747Z,8.53
2018-06-27T14:41:43.146Z,2.80
2018-06-27T14:44:13.171Z,10.03
2018-06-27T14:46:42.502Z,2.93
2018-06-27T14:49:11.831Z,2.33
2018-06-27T14:51:41.270Z,2.83
2018-06-27T14:54:10.790Z,4.50
2018-06-27T14:56:40.194Z,4.17
2018-06-27T14:59:11.173Z,4.00
2018-06-27T15:01:41.055Z,4.80
2018-06-27T15:04:12.011Z,2.70
2018-06-27T15:06:41.442Z,3.30
2018-06-27T15:09:11.019Z,3.07
2018-06-27T15:11:40.524Z,2.67
2018-06-27T15:14:10.199Z,3.30
2018-06-27T15:16:40.008Z,2.87
2018-06-27T15:19:10.228Z,2.33
2018-06-27T15:21:39.667Z,2.40
2018-06-27T15:24:10.587Z,1.50
2018-06-27T15:26:40.734Z,1.73
2018-06-27T15:29:10.202Z,2.20
2018-06-27T15:31:41.588Z,1.83
2018-06-27T15:34:11.034Z,1.83
2018-06-27T15:36:40.531Z,1.80
2018-06-27T15:39:11.550Z,1.70
2018-06-27T15:41:40.934Z,1.50
2018-06-27T15:44:10.311Z,1.53
2018-06-27T15:46:40.203Z,1.50
2018-06-27T15:49:10.460Z,1.50
2018-06-27T15:51:40.854Z,1.57
2018-06-27T15:54:10.326Z,1.90
2018-06-27T15:56:39.747Z,1.33
2018-06-27T15:59:09.225Z,2.00
2018-06-27T16:01:38.680Z,1.27
2018-06-27T16:04:09.155Z,1.63
2018-06-27T16:06:39.055Z,0.90
2018-06-27T16:09:09.907Z,1.57
2018-06-27T16:11:39.737Z,1.20
2018-06-27T16:14:09.062Z,1.50
2018-06-27T16:16:39.466Z,1.67
2018-06-27T16:19:09.893Z,1.60
2018-06-27T16:21:40.439Z,1.47
2018-06-27T16:24:09.688Z,1.53
2018-06-27T16:26:39.114Z,1.40
2018-06-27T16:29:08.189Z,1.50
2018-06-27T16:31:38.673Z,1.20
2018-06-27T16:34:07.952Z,1.70
2018-06-27T16:36:37.821Z,1.17
2018-06-27T16:39:10.720Z,1.00
2018-06-27T16:41:40.004Z,1.53
2018-06-27T16:44:09.347Z,1.50
2018-06-27T16:46:39.575Z,1.27
2018-06-27T16:49:09.784Z,1.40
2018-06-27T16:51:39.522Z,1.40
2018-06-27T16:54:09.054Z,1.20
2018-06-27T16:56:38.851Z,1.73
2018-06-27T16:59:08.556Z,1.30
2018-06-27T17:01:38.388Z,1.53
2018-06-27T17:04:07.507Z,2.33
2018-06-27T17:06:36.735Z,1.90
2018-06-27T17:09:08.501Z,2.33
2018-06-27T17:11:37.695Z,2.33
2018-06-27T17:14:07.297Z,2.87
2018-06-27T17:16:37.596Z,2.20
2018-06-27T17:19:07.556Z,2.03
2018-06-27T17:21:36.567Z,2.53
2018-06-27T17:24:05.694Z,1.60
2018-06-27T17:26:34.821Z,1.47
2018-06-27T17:29:04.247Z,1.37
2018-06-27T17:31:35.210Z,1.30
2018-06-27T17:34:05.399Z,1.70
2018-06-27T17:36:34.553Z,2.00
2018-06-27T17:39:04.420Z,1.80
2018-06-27T17:41:35.118Z,1.77
2018-06-27T17:44:06.136Z,3.50
2018-06-27T17:46:36.135Z,3.20
2018-06-27T17:49:06.707Z,12.70
2018-06-27T17:51:36.372Z,5.70
2018-06-27T17:54:06.692Z,2.67
2018-06-27T17:56:37.321Z,1.20
2018-06-27T17:59:07.195Z,1.07
2018-06-27T18:01:36.999Z,1.37
2018-06-27T18:04:06.370Z,1.57
2018-06-27T18:06:37.511Z,1.60
2018-06-27T18:09:10.378Z,1.77
2018-06-27T18:11:40.875Z,1.77
2018-06-27T18:14:10.310Z,1.40
2018-06-27T18:16:39.668Z,1.73
2018-06-27T18:19:09.391Z,1.40
2018-06-27T18:21:38.982Z,1.20
2018-06-27T18:24:10.072Z,1.47
2018-06-27T18:26:39.598Z,1.30
2018-06-27T18:29:09.295Z,2.13
2018-06-27T18:31:41.973Z,2.93
2018-06-27T18:34:12.681Z,2.73
2018-06-27T18:36:43.378Z,2.73
2018-06-27T18:39:13.491Z,2.93
2018-06-27T18:41:43.365Z,2.20
2018-06-27T18:44:14.927Z,2.57
2018-06-27T18:46:45.771Z,3.50
2018-06-27T18:49:16.548Z,2.20
2018-06-27T18:51:46.815Z,1.57
2018-06-27T18:54:16.482Z,1.73
2018-06-27T18:56:46.369Z,1.60
2018-06-27T18:59:16.288Z,2.00
2018-06-27T19:01:47.011Z,2.33
2018-06-27T19:04:17.325Z,2.27
2018-06-27T19:06:47.174Z,1.90
2018-06-27T19:09:18.123Z,2.03
2018-06-27T19:11:47.913Z,1.60
2018-06-27T19:14:18.384Z,2.13
2018-06-27T19:16:48.995Z,2.00
2018-06-27T19:19:19.727Z,1.50
2018-06-27T19:21:49.686Z,1.70
2018-06-27T19:24:20.266Z,1.93
2018-06-27T19:26:53.748Z,1.80
2018-06-27T19:29:24.740Z,1.60
2018-06-27T19:31:54.772Z,1.90
2018-06-27T19:34:25.469Z,2.20
2018-06-27T19:36:56.038Z,1.90
2018-06-27T19:39:37.456Z,2.87
2018-06-27T19:41:55.974Z,1.90
2018-06-27T19:44:25.426Z,1.87
2018-06-27T19:46:55.732Z,2.23
2018-06-27T19:49:25.772Z,1.87
2018-06-27T19:51:56.918Z,1.33
2018-06-27T19:54:28.146Z,1.87
2018-06-27T19:56:58.753Z,1.70
2018-06-27T19:59:28.608Z,1.90
2018-06-27T20:01:58.497Z,2.83
2018-06-27T20:04:28.801Z,2.10
2018-06-27T20:06:59.414Z,1.90
2018-06-27T20:09:30.122Z,1.73
2018-06-27T20:11:59.536Z,1.80
2018-06-27T20:14:30.787Z,2.07
2018-06-27T20:17:00.798Z,1.80
2018-06-27T20:19:30.223Z,2.60
2018-06-27T20:21:59.740Z,1.63
2018-06-27T20:24:33.561Z,2.00
2018-06-27T20:27:03.566Z,2.50
2018-06-27T20:29:33.915Z,3.17
2018-06-27T20:32:03.232Z,2.10
2018-06-27T20:34:32.701Z,2.20
2018-06-27T20:37:02.112Z,1.57
2018-06-27T20:39:31.488Z,1.70
2018-06-27T20:42:00.830Z,1.40
2018-06-27T20:44:31.638Z,1.13
2018-06-27T20:47:01.121Z,1.40
2018-06-27T20:49:30.690Z,1.30
2018-06-27T20:51:59.946Z,1.00
2018-06-27T20:54:30.422Z,1.37
2018-06-27T20:57:00.402Z,1.23
2018-06-27T20:59:33.516Z,1.47
2018-06-27T21:02:03.705Z,1.37
2018-06-27T21:04:35.929Z,1.20
2018-06-27T21:07:05.379Z,1.00
2018-06-27T21:09:35.609Z,1.40
2018-06-27T21:12:05.905Z,1.97
2018-06-27T21:14:35.369Z,1.60
2018-06-27T21:17:05.084Z,1.50
2018-06-27T21:19:34.417Z,1.30
2018-06-27T21:22:03.945Z,1.53
2018-06-27T21:24:34.840Z,1.37
2018-06-27T21:27:04.278Z,1.30
2018-06-27T21:29:33.600Z,0.80
2018-06-27T21:32:02.861Z,0.63
2018-06-27T21:34:32.277Z,1.00
2018-06-27T21:37:02.035Z,1.13
2018-06-27T21:39:31.470Z,1.20
2018-06-27T21:42:01.139Z,1.33
2018-06-27T21:44:30.354Z,1.40
2018-06-27T21:46:59.627Z,1.00
2018-06-27T21:49:28.872Z,1.30
2018-06-27T21:51:58.314Z,1.27
2018-06-27T21:54:27.640Z,1.10
2018-06-27T21:56:57.976Z,1.40
2018-06-27T21:59:27.286Z,1.17
2018-06-27T22:01:56.610Z,1.63
2018-06-27T22:04:25.990Z,1.27
2018-06-27T22:06:55.967Z,1.70
2018-06-27T22:09:26.146Z,2.30
2018-06-27T22:11:55.962Z,1.57
2018-06-27T22:14:25.343Z,1.87
2018-06-27T22:16:55.615Z,1.77
2018-06-27T22:19:26.552Z,1.70
2018-06-27T22:21:56.002Z,2.10
2018-06-27T22:24:25.184Z,1.80
2018-06-27T22:26:55.158Z,1.80
2018-06-27T22:29:24.550Z,2.10
2018-06-27T22:31:55.637Z,1.50
2018-06-27T22:34:25.040Z,1.33
2018-06-27T22:36:54.507Z,1.90
2018-06-27T22:39:25.157Z,1.30
2018-06-27T22:41:55.083Z,2.00
2018-06-27T22:44:24.500Z,2.00
2018-06-27T22:46:54.805Z,2.03
2018-06-27T22:49:24.834Z,1.20
2018-06-27T22:51:54.196Z,1.30
2018-06-27T22:54:23.554Z,1.77
2018-06-27T22:56:53.532Z,1.60
2018-06-27T22:59:22.915Z,1.73
2018-06-27T23:01:53.565Z,1.63
2018-06-27T23:04:22.897Z,2.10
2018-06-27T23:06:52.282Z,1.43
2018-06-27T23:09:22.098Z,2.00
2018-06-27T23:11:51.533Z,1.60
2018-06-27T23:14:21.660Z,1.80
2018-06-27T23:16:51.055Z,1.70
2018-06-27T23:19:20.356Z,1.50
2018-06-27T23:21:50.168Z,1.57
2018-06-27T23:24:20.283Z,1.50
2018-06-27T23:26:49.494Z,1.47
2018-06-27T23:29:20.056Z,1.83
2018-06-27T23:31:51.305Z,1.90
2018-06-27T23:34:20.689Z,1.60
2018-06-27T23:36:51.193Z,1.93
2018-06-27T23:39:21.302Z,1.20
2018-06-27T23:41:50.625Z,1.23
2018-06-27T23:44:19.964Z,1.47
2018-06-27T23:46:52.069Z,1.77
2018-06-27T23:49:22.373Z,1.77
2018-06-27T23:51:51.662Z,1.70
2018-06-27T23:54:21.189Z,1.57
2018-06-27T23:56:50.599Z,1.90
2018-06-27T23:59:20.048Z,1.63
